createdAt,value
2023-05-19T07:25:59.181Z,13.69
2023-05-19T07:28:26.176Z,14.21
2023-05-19T07:30:53.432Z,14.51
2023-05-19T07:33:20.368Z,14.60
2023-05-19T07:35:47.629Z,14.77
2023-05-19T07:38:14.526Z,15.04
2023-05-19T07:40:41.511Z,15.25
2023-05-19T07:43:08.468Z,15.33
2023-05-19T07:45:35.416Z,15.57
2023-05-19T07:48:02.458Z,15.70
2023-05-19T07:50:29.636Z,15.86
2023-05-19T07:52:56.692Z,16.16
2023-05-19T07:55:23.646Z,16.35
2023-05-19T07:57:51.258Z,16.44
2023-05-19T08:00:18.547Z,16.62
2023-05-19T08:02:45.895Z,16.71
2023-05-19T08:05:12.909Z,16.69
2023-05-19T08:07:40.164Z,16.63
2023-05-19T08:10:07.624Z,16.59
2023-05-19T08:12:34.555Z,16.71
2023-05-19T08:15:02.024Z,16.81
2023-05-19T08:17:29.165Z,16.68
2023-05-19T08:19:56.219Z,16.54
2023-05-19T08:22:23.216Z,16.52
2023-05-19T08:24:51.921Z,16.42
2023-05-19T08:27:18.990Z,16.51
2023-05-19T08:29:46.037Z,16.61
2023-05-19T08:32:13.482Z,16.78
2023-05-19T08:34:41.494Z,16.86
2023-05-19T08:37:08.535Z,17.01
2023-05-19T08:39:35.671Z,16.74
2023-05-19T08:42:02.716Z,16.89
2023-05-19T08:44:31.036Z,16.87
2023-05-19T08:47:03.066Z,16.95
2023-05-19T08:49:33.591Z,17.03
2023-05-19T08:52:17.313Z,17.08
2023-05-19T08:54:51.026Z,17.21
2023-05-19T08:57:18.978Z,17.19
2023-05-19T08:59:46.360Z,17.33
2023-05-19T09:02:14.533Z,17.42
2023-05-19T09:04:46.122Z,17.45
2023-05-19T09:07:16.959Z,17.34
2023-05-19T09:09:44.214Z,17.45
2023-05-19T09:12:11.635Z,17.57
2023-05-19T09:14:39.120Z,17.75
2023-05-19T09:17:06.816Z,18.01
2023-05-19T09:19:34.048Z,18.31
2023-05-19T09:22:03.880Z,18.58
2023-05-19T09:24:31.168Z,18.69
2023-05-19T09:27:00.080Z,19.05
2023-05-19T09:29:27.455Z,19.06
2023-05-19T09:32:05.454Z,18.72
2023-05-19T09:34:32.620Z,18.75
2023-05-19T09:37:00.051Z,18.90
2023-05-19T09:39:28.979Z,18.99
2023-05-19T09:41:58.752Z,18.73
2023-05-19T09:44:30.561Z,19.07
2023-05-19T09:46:58.866Z,19.32
2023-05-19T09:49:30.750Z,19.15
2023-05-19T09:51:59.117Z,18.57
2023-05-19T09:54:29.845Z,18.44
2023-05-19T09:57:07.760Z,18.42
2023-05-19T09:59:35.888Z,18.71
2023-05-19T10:02:03.175Z,18.56
2023-05-19T10:04:31.312Z,18.50
2023-05-19T10:07:01.799Z,17.72
2023-05-19T10:09:30.113Z,17.72
2023-05-19T10:11:59.133Z,18.00
2023-05-19T10:14:27.801Z,17.62
2023-05-19T10:16:56.631Z,17.62
2023-05-19T10:19:26.694Z,17.84
2023-05-19T10:21:54.423Z,17.71
2023-05-19T10:24:21.825Z,17.98
2023-05-19T10:26:54.248Z,18.20
2023-05-19T10:29:27.653Z,18.41
2023-05-19T10:32:01.388Z,18.46
2023-05-19T10:35:02.401Z,17.85
2023-05-19T10:37:46.959Z,17.93
2023-05-19T10:40:22.104Z,18.07
2023-05-19T10:43:17.454Z,18.00
2023-05-19T10:45:58.121Z,18.01
2023-05-19T10:48:25.167Z,18.25
2023-05-19T10:50:56.619Z,18.50
2023-05-19T10:53:31.551Z,18.23
2023-05-19T10:56:02.756Z,18.29
2023-05-19T10:58:44.616Z,18.15
2023-05-19T11:01:19.799Z,18.40
2023-05-19T11:03:54.910Z,18.53
2023-05-19T11:06:28.258Z,18.68
2023-05-19T11:09:15.686Z,18.80
2023-05-19T11:11:54.114Z,18.92
2023-05-19T11:14:25.493Z,19.17
2023-05-19T11:16:56.904Z,19.11
2023-05-19T11:19:35.732Z,19.12
2023-05-19T11:22:13.539Z,19.25
2023-05-19T11:24:52.495Z,19.45
2023-05-19T11:27:37.624Z,19.61
2023-05-19T11:30:16.095Z,19.92
2023-05-19T11:32:44.481Z,19.91
2023-05-19T11:35:11.620Z,19.19
2023-05-19T11:37:40.754Z,19.33
2023-05-19T11:40:08.485Z,18.84
2023-05-19T11:42:37.230Z,19.22
2023-05-19T11:45:05.381Z,19.76
2023-05-19T11:47:45.909Z,20.25
2023-05-19T11:50:20.587Z,20.43
2023-05-19T11:52:47.813Z,20.48
2023-05-19T11:55:18.718Z,20.36
2023-05-19T11:58:04.656Z,20.23
2023-05-19T12:00:39.839Z,20.20
2023-05-19T12:03:08.360Z,20.09
2023-05-19T12:05:43.431Z,20.11
2023-05-19T12:08:12.209Z,20.61
2023-05-19T12:10:40.221Z,20.50
2023-05-19T12:13:10.713Z,20.45
2023-05-19T12:15:39.023Z,20.38
2023-05-19T12:18:06.826Z,20.33
2023-05-19T12:20:36.328Z,20.55
2023-05-19T12:23:04.185Z,20.74
2023-05-19T12:25:32.366Z,20.75
2023-05-19T12:28:03.228Z,20.89
2023-05-19T12:30:31.821Z,20.78
2023-05-19T12:32:59.281Z,20.54
2023-05-19T12:35:28.016Z,20.57
2023-05-19T12:37:55.334Z,20.96
2023-05-19T12:40:22.750Z,21.34
2023-05-19T12:42:52.108Z,21.54
2023-05-19T12:45:22.933Z,21.75
2023-05-19T12:47:51.948Z,21.86
2023-05-19T12:50:19.502Z,21.31
2023-05-19T12:52:53.573Z,21.28
2023-05-19T12:55:21.158Z,20.24
2023-05-19T12:57:58.131Z,19.88
2023-05-19T13:00:29.123Z,20.26
2023-05-19T13:03:00.403Z,20.46
2023-05-19T13:05:33.854Z,21.02
2023-05-19T13:08:11.019Z,21.30
2023-05-19T13:10:39.952Z,21.50
2023-05-19T13:13:08.577Z,21.19
2023-05-19T13:15:39.051Z,20.97
2023-05-19T13:18:09.064Z,20.92
2023-05-19T13:20:37.560Z,21.12
2023-05-19T13:23:06.092Z,20.73
2023-05-19T13:25:34.515Z,20.69
2023-05-19T13:28:05.156Z,20.18
2023-05-19T13:30:33.446Z,20.37
2023-05-19T13:33:00.600Z,20.71
2023-05-19T13:35:27.611Z,20.82
2023-05-19T13:37:54.846Z,21.02
2023-05-19T13:40:23.195Z,20.76
2023-05-19T13:42:50.152Z,20.84
2023-05-19T13:45:17.190Z,21.09
2023-05-19T13:47:44.163Z,21.03
2023-05-19T13:50:11.285Z,21.00
2023-05-19T13:52:38.334Z,20.20
2023-05-19T13:55:06.819Z,20.38
2023-05-19T13:57:34.267Z,20.57
2023-05-19T14:00:03.716Z,20.40
2023-05-19T14:02:31.507Z,20.62
2023-05-19T14:04:58.586Z,20.97
2023-05-19T14:07:25.895Z,21.08
2023-05-19T14:09:53.151Z,21.14
2023-05-19T14:12:23.184Z,20.96
2023-05-19T14:14:52.455Z,21.14
2023-05-19T14:17:19.342Z,21.33
2023-05-19T14:19:46.244Z,21.32
2023-05-19T14:22:13.725Z,21.32
2023-05-19T14:24:41.715Z,21.40
2023-05-19T14:27:08.668Z,21.21
2023-05-19T14:29:35.660Z,21.20
2023-05-19T14:32:03.992Z,21.19
2023-05-19T14:34:31.041Z,21.29
2023-05-19T14:36:58.003Z,21.16
2023-05-19T14:39:24.928Z,20.94
2023-05-19T14:41:53.141Z,20.80
2023-05-19T14:44:20.147Z,20.99
2023-05-19T14:46:47.153Z,21.12
2023-05-19T14:49:14.252Z,20.48
2023-05-19T14:51:41.135Z,20.96
2023-05-19T14:54:08.192Z,21.32
2023-05-19T14:56:35.290Z,21.37
2023-05-19T14:59:02.281Z,21.64
2023-05-19T15:01:29.290Z,21.69
2023-05-19T15:03:56.445Z,21.52
2023-05-19T15:06:23.783Z,21.83
2023-05-19T15:08:51.131Z,22.09
2023-05-19T15:11:18.033Z,21.92
2023-05-19T15:13:45.209Z,21.88
2023-05-19T15:18:42.045Z,21.16
2023-05-19T15:21:08.980Z,20.80
2023-05-19T15:23:35.996Z,20.87
2023-05-19T15:26:03.275Z,20.43
2023-05-19T15:28:30.328Z,20.64
2023-05-19T15:30:57.242Z,20.33
2023-05-19T15:33:24.265Z,20.58
2023-05-19T15:35:52.599Z,20.97
2023-05-19T15:38:20.016Z,21.17
2023-05-19T15:40:47.056Z,21.04
2023-05-19T15:43:14.298Z,20.48
2023-05-19T15:45:41.417Z,20.50
2023-05-19T15:48:08.822Z,20.56
2023-05-19T15:50:36.461Z,21.03
2023-05-19T15:53:03.671Z,20.95
2023-05-19T15:55:30.724Z,21.16
2023-05-19T15:57:57.867Z,21.52
2023-05-19T16:00:24.812Z,21.48
2023-05-19T16:02:51.752Z,21.58
2023-05-19T16:05:18.902Z,21.74
2023-05-19T16:07:45.766Z,21.29
2023-05-19T16:10:12.715Z,21.02
2023-05-19T16:12:39.766Z,21.15
2023-05-19T16:15:07.201Z,20.78
2023-05-19T16:17:34.876Z,21.38
2023-05-19T16:20:01.910Z,21.96
2023-05-19T16:22:30.349Z,22.19
2023-05-19T16:24:57.277Z,22.46
2023-05-19T16:27:24.330Z,22.61
2023-05-19T16:29:51.222Z,22.74
2023-05-19T16:32:18.169Z,21.62
2023-05-19T16:34:45.012Z,21.70
2023-05-19T16:37:11.855Z,21.40
2023-05-19T16:39:38.794Z,21.19
2023-05-19T16:42:05.956Z,20.70
2023-05-19T16:44:32.956Z,20.00
2023-05-19T16:47:00.093Z,20.24
2023-05-19T16:49:27.145Z,20.18
2023-05-19T16:51:54.340Z,20.09
2023-05-19T16:54:21.841Z,20.13
2023-05-19T16:56:50.228Z,20.03
2023-05-19T16:59:17.586Z,20.06
2023-05-19T17:01:44.835Z,19.69
2023-05-19T17:04:12.028Z,19.47
2023-05-19T17:06:39.026Z,19.55
2023-05-19T17:09:05.961Z,19.68
2023-05-19T17:11:32.862Z,19.66
2023-05-19T17:13:59.905Z,19.64
2023-05-19T17:16:26.886Z,19.42
2023-05-19T17:18:53.926Z,19.52
2023-05-19T17:21:20.902Z,19.80
2023-05-19T17:23:48.302Z,19.78
2023-05-19T17:26:16.382Z,19.74
2023-05-19T17:28:43.270Z,19.71
2023-05-19T17:31:12.116Z,19.60
2023-05-19T17:33:39.428Z,19.22
2023-05-19T17:36:07.389Z,19.29
2023-05-19T17:38:34.493Z,19.00
2023-05-19T17:41:09.783Z,18.83
2023-05-19T17:43:37.584Z,18.92
2023-05-19T17:46:05.292Z,18.90
2023-05-19T17:48:32.704Z,18.95
2023-05-19T17:51:00.665Z,18.75
2023-05-19T17:53:27.967Z,18.66
2023-05-19T17:56:06.699Z,18.45
2023-05-19T17:58:33.993Z,18.59
2023-05-19T18:01:01.106Z,18.37
2023-05-19T18:03:28.795Z,18.28
2023-05-19T18:05:56.071Z,18.23
2023-05-19T18:08:23.259Z,18.24
2023-05-19T18:10:51.856Z,18.25
2023-05-19T18:13:18.856Z,18.42
2023-05-19T18:15:45.734Z,18.31
2023-05-19T18:18:12.760Z,18.34
2023-05-19T18:20:41.418Z,18.36
2023-05-19T18:23:08.353Z,18.27
2023-05-19T18:25:35.814Z,18.29
2023-05-19T18:28:02.735Z,18.22
2023-05-19T18:30:29.756Z,18.26
2023-05-19T18:32:57.412Z,18.12
2023-05-19T18:35:24.270Z,18.15
2023-05-19T18:37:54.550Z,18.15
2023-05-19T18:40:21.477Z,18.13
2023-05-19T18:42:48.453Z,18.06
2023-05-19T18:45:15.427Z,18.06
2023-05-19T18:47:42.497Z,18.04
2023-05-19T18:50:09.468Z,18.06
2023-05-19T18:52:36.441Z,18.00
2023-05-19T18:55:03.968Z,17.92
2023-05-19T18:57:30.952Z,17.81
2023-05-19T18:59:58.264Z,17.78
2023-05-19T19:02:25.251Z,17.68
2023-05-19T19:04:52.176Z,17.58
2023-05-19T19:07:19.197Z,17.46
2023-05-19T19:09:46.262Z,17.31
2023-05-19T19:12:13.104Z,17.20
2023-05-19T19:14:39.981Z,17.19
2023-05-19T19:17:06.884Z,16.86
2023-05-19T19:19:33.862Z,16.70
2023-05-19T19:22:00.839Z,16.67
2023-05-19T19:24:28.633Z,16.40
2023-05-19T19:26:55.587Z,16.45
2023-05-19T19:29:22.623Z,16.36
2023-05-19T19:31:49.657Z,16.31
2023-05-19T19:34:19.850Z,16.32
2023-05-19T19:36:47.989Z,16.27
2023-05-19T19:39:15.372Z,16.33
2023-05-19T19:41:42.518Z,16.25
2023-05-19T19:44:09.526Z,16.19
2023-05-19T19:46:36.520Z,16.14
2023-05-19T19:49:03.552Z,16.09
2023-05-19T19:51:31.639Z,15.89
2023-05-19T19:53:59.269Z,15.95
2023-05-19T19:56:27.776Z,16.04
2023-05-19T19:58:56.862Z,15.96
2023-05-19T20:01:28.068Z,15.97
2023-05-19T20:03:56.926Z,16.00
2023-05-19T20:06:23.962Z,15.95
2023-05-19T20:08:51.008Z,15.88
2023-05-19T20:11:17.965Z,15.83
2023-05-19T20:13:44.892Z,15.75
2023-05-19T20:16:11.964Z,15.71
2023-05-19T20:18:39.785Z,15.65
2023-05-19T20:21:06.865Z,15.61
2023-05-19T20:23:34.072Z,15.53
2023-05-19T20:26:11.855Z,15.46
2023-05-19T20:28:40.460Z,15.42
2023-05-19T20:31:07.629Z,15.40
2023-05-19T20:33:34.878Z,15.35
2023-05-19T20:36:01.939Z,15.33
2023-05-19T20:38:28.934Z,15.30
2023-05-19T20:40:55.824Z,15.37
2023-05-19T20:43:22.765Z,15.34
2023-05-19T20:45:49.736Z,15.36
2023-05-19T20:48:16.714Z,15.26
2023-05-19T20:50:43.671Z,15.19
2023-05-19T20:53:10.756Z,15.12
2023-05-19T20:55:39.252Z,15.13
2023-05-19T20:58:06.347Z,15.07
2023-05-19T21:00:33.756Z,15.01
2023-05-19T21:03:01.628Z,15.01
2023-05-19T21:05:28.656Z,14.88
2023-05-19T21:07:55.705Z,14.90
2023-05-19T21:10:22.792Z,14.95
2023-05-19T21:12:49.845Z,14.85
2023-05-19T21:15:16.923Z,14.88
2023-05-19T21:17:43.854Z,14.88
2023-05-19T21:20:11.300Z,14.89
2023-05-19T21:22:38.351Z,14.88
2023-05-19T21:25:06.243Z,14.67
2023-05-19T21:27:35.604Z,14.74
2023-05-19T21:30:02.763Z,14.53
2023-05-19T21:32:29.880Z,14.68
2023-05-19T21:34:56.964Z,14.74
2023-05-19T21:37:23.849Z,14.68
2023-05-19T21:39:50.898Z,14.73
2023-05-19T21:42:18.144Z,14.76
2023-05-19T21:44:45.002Z,14.63
2023-05-19T21:47:11.984Z,14.65
2023-05-19T21:49:40.415Z,14.73
2023-05-19T21:52:08.128Z,14.59
2023-05-19T21:54:36.312Z,14.65
2023-05-19T21:57:03.337Z,14.70
2023-05-19T21:59:31.063Z,14.62
2023-05-19T22:01:58.665Z,14.57
2023-05-19T22:04:25.974Z,14.55
2023-05-19T22:06:52.876Z,14.54
2023-05-19T22:09:19.777Z,14.51
2023-05-19T22:11:46.652Z,14.51
2023-05-19T22:14:13.922Z,14.51
2023-05-19T22:16:41.289Z,14.50
2023-05-19T22:19:08.370Z,14.53
2023-05-19T22:21:35.306Z,14.52
2023-05-19T22:24:02.713Z,14.42
2023-05-19T22:26:29.924Z,14.40
2023-05-19T22:28:57.119Z,14.43
2023-05-19T22:31:24.054Z,14.42
2023-05-19T22:33:51.106Z,14.35
2023-05-19T22:36:18.043Z,14.40
2023-05-19T22:38:45.013Z,14.33
2023-05-19T22:41:11.944Z,14.30
2023-05-19T22:43:38.982Z,14.33
2023-05-19T22:46:06.153Z,14.28
2023-05-19T22:48:33.229Z,14.32
2023-05-19T22:51:00.275Z,14.28
2023-05-19T22:53:27.184Z,14.27
2023-05-19T22:55:54.073Z,14.24
2023-05-19T22:58:20.959Z,14.27
2023-05-19T23:00:47.897Z,14.23
2023-05-19T23:03:14.835Z,14.21
2023-05-19T23:05:41.736Z,14.17
2023-05-19T23:08:08.646Z,14.14
2023-05-19T23:10:35.737Z,14.20
2023-05-19T23:13:02.621Z,14.14
2023-05-19T23:15:29.733Z,14.08
2023-05-19T23:17:56.697Z,14.07
2023-05-19T23:20:23.613Z,14.04
2023-05-19T23:22:50.569Z,14.02
2023-05-19T23:25:17.817Z,14.01
2023-05-19T23:27:46.630Z,14.02
2023-05-19T23:30:13.608Z,13.97
2023-05-19T23:32:41.190Z,14.00
2023-05-19T23:35:17.009Z,14.08
2023-05-19T23:37:44.218Z,14.03
2023-05-19T23:40:11.748Z,13.99
2023-05-19T23:42:38.822Z,14.06
2023-05-19T23:45:06.434Z,14.11
2023-05-19T23:47:33.390Z,14.09
2023-05-19T23:50:00.372Z,14.07
2023-05-19T23:52:27.424Z,14.02
2023-05-19T23:54:54.383Z,13.99
2023-05-19T23:57:21.567Z,13.89
2023-05-19T23:59:48.615Z,13.87
